createdAt,value
2022-10-29T00:04:45.988Z,13.95
2022-10-29T00:09:49.080Z,13.90
2022-10-29T00:14:53.984Z,13.81
2022-10-29T00:19:56.951Z,13.75
2022-10-29T00:25:00.494Z,13.72
2022-10-29T00:30:05.361Z,13.66
2022-10-29T00:35:08.788Z,13.61
2022-10-29T00:40:13.253Z,13.54
2022-10-29T00:45:22.489Z,13.44
2022-10-29T00:50:26.003Z,13.37
2022-10-29T00:55:29.470Z,13.29
2022-10-29T01:00:33.828Z,13.23
2022-10-29T01:05:37.590Z,13.20
2022-10-29T01:10:55.460Z,13.15
2022-10-29T01:16:07.716Z,13.13
2022-10-29T01:21:38.142Z,13.06
2022-10-29T01:27:21.680Z,13.04
2022-10-29T01:32:32.250Z,12.99
2022-10-29T01:37:43.201Z,12.92
2022-10-29T01:42:50.656Z,12.88
2022-10-29T01:47:59.310Z,12.82
2022-10-29T01:53:04.884Z,12.78
2022-10-29T01:58:08.787Z,12.74
2022-10-29T02:03:26.001Z,12.71
2022-10-29T02:08:37.679Z,12.69
2022-10-29T02:13:46.928Z,12.67
2022-10-29T02:18:53.513Z,12.64
2022-10-29T02:23:56.465Z,12.61
2022-10-29T02:29:00.132Z,12.59
2022-10-29T02:34:04.650Z,12.57
2022-10-29T02:39:07.656Z,12.57
2022-10-29T02:44:10.584Z,12.55
2022-10-29T02:49:14.957Z,12.53
2022-10-29T02:54:20.489Z,12.55
2022-10-29T02:59:23.691Z,12.57
2022-10-29T03:04:28.298Z,12.58
2022-10-29T03:09:31.275Z,12.60
2022-10-29T03:14:34.359Z,12.60
2022-10-29T03:19:38.760Z,12.59
2022-10-29T03:24:41.732Z,12.69
2022-10-29T03:29:44.707Z,12.77
2022-10-29T03:34:49.098Z,12.83
2022-10-29T03:39:52.000Z,12.91
2022-10-29T03:44:54.964Z,12.97
2022-10-29T03:49:59.425Z,13.04
2022-10-29T03:55:02.476Z,13.04
2022-10-29T04:00:06.277Z,13.10
2022-10-29T04:05:17.246Z,13.07
2022-10-29T04:10:20.308Z,13.05
2022-10-29T04:15:23.495Z,13.04
2022-10-29T04:20:57.001Z,13.08
2022-10-29T04:31:20.784Z,13.10
2022-10-29T04:36:25.310Z,13.22
2022-10-29T04:41:28.375Z,13.24
2022-10-29T04:46:31.368Z,13.26
2022-10-29T04:51:35.832Z,13.24
2022-10-29T04:56:38.848Z,13.24
2022-10-29T05:01:41.841Z,13.31
2022-10-29T05:06:46.561Z,13.33
2022-10-29T05:11:49.593Z,13.36
2022-10-29T05:16:52.783Z,13.40
2022-10-29T05:21:57.356Z,13.36
2022-10-29T05:27:00.365Z,13.37
2022-10-29T05:32:03.420Z,13.42
2022-10-29T05:37:07.680Z,13.46
2022-10-29T05:42:10.600Z,13.48
2022-10-29T05:47:13.599Z,13.55
2022-10-29T05:52:18.043Z,13.58
2022-10-29T05:57:21.258Z,13.57
2022-10-29T06:02:24.442Z,13.55
2022-10-29T06:07:28.929Z,13.51
2022-10-29T06:12:34.876Z,13.50
2022-10-29T06:17:41.847Z,13.60
2022-10-29T06:22:46.228Z,13.66
2022-10-29T06:27:49.395Z,13.70
2022-10-29T06:32:52.542Z,13.69
2022-10-29T06:37:57.259Z,13.75
2022-10-29T06:43:00.949Z,13.73
2022-10-29T06:48:05.154Z,13.78
2022-10-29T06:53:13.312Z,13.88
2022-10-29T06:58:18.561Z,13.95
2022-10-29T07:03:23.155Z,14.02
2022-10-29T07:08:28.922Z,14.09
2022-10-29T07:13:31.932Z,14.14
2022-10-29T07:18:35.356Z,14.22
2022-10-29T07:23:39.685Z,14.32
2022-10-29T07:28:42.963Z,14.37
2022-10-29T07:46:18.683Z,14.60
2022-10-29T07:51:21.682Z,14.64
2022-10-29T07:56:26.068Z,14.66
2022-10-29T08:01:29.132Z,14.77
2022-10-29T08:06:32.414Z,14.93
2022-10-29T08:11:36.932Z,15.02
2022-10-29T08:16:40.373Z,15.13
2022-10-29T08:21:43.626Z,15.23
2022-10-29T08:26:48.135Z,15.36
2022-10-29T08:31:51.163Z,15.75
2022-10-29T08:36:54.103Z,15.96
2022-10-29T08:42:11.242Z,16.10
2022-10-29T08:47:19.218Z,16.28
2022-10-29T08:52:35.410Z,16.46
2022-10-29T08:57:45.324Z,16.66
2022-10-29T09:02:48.525Z,16.79
2022-10-29T09:08:08.520Z,16.84
2022-10-29T09:13:40.150Z,16.98
2022-10-29T09:19:01.604Z,17.09
2022-10-29T09:24:16.253Z,17.17
2022-10-29T09:29:37.616Z,17.20
2022-10-29T09:34:45.511Z,17.28
2022-10-29T09:39:49.534Z,17.37
2022-10-29T09:44:57.157Z,17.31
2022-10-29T09:50:11.835Z,17.45
2022-10-29T09:55:22.139Z,17.63
2022-10-29T10:00:28.653Z,17.81
2022-10-29T10:05:33.232Z,18.06
2022-10-29T10:10:39.334Z,18.28
2022-10-29T10:15:52.149Z,18.34
2022-10-29T10:21:05.362Z,18.51
2022-10-29T10:26:32.699Z,18.60
2022-10-29T10:31:37.635Z,18.74
2022-10-29T10:36:46.970Z,18.95
2022-10-29T10:41:51.828Z,19.06
2022-10-29T10:46:58.288Z,19.21
2022-10-29T10:52:04.693Z,19.47
2022-10-29T10:57:25.043Z,19.50
2022-10-29T11:02:39.206Z,19.73
2022-10-29T11:07:48.080Z,20.09
2022-10-29T11:12:56.155Z,20.16
2022-10-29T11:18:08.171Z,20.16
2022-10-29T11:23:29.421Z,20.36
2022-10-29T11:28:39.857Z,20.69
2022-10-29T11:33:52.054Z,20.92
2022-10-29T11:39:03.580Z,21.13
2022-10-29T11:44:13.033Z,21.24
2022-10-29T11:49:31.587Z,21.49
2022-10-29T11:54:52.602Z,21.68
2022-10-29T12:00:13.903Z,21.98
2022-10-29T12:05:29.938Z,22.33
2022-10-29T12:10:45.159Z,22.50
2022-10-29T12:15:57.466Z,22.71
2022-10-29T12:21:11.032Z,22.76
2022-10-29T12:26:19.669Z,22.85
2022-10-29T12:31:30.013Z,22.93
2022-10-29T12:36:44.472Z,23.09
2022-10-29T12:41:51.302Z,23.16
2022-10-29T12:47:03.535Z,23.40
2022-10-29T12:52:14.857Z,23.63
2022-10-29T12:57:39.124Z,23.97
2022-10-29T13:02:46.247Z,24.17
2022-10-29T13:08:19.625Z,24.23
2022-10-29T13:13:48.341Z,24.31
2022-10-29T13:19:06.132Z,24.16
2022-10-29T13:24:18.264Z,23.99
2022-10-29T13:29:43.373Z,23.92
2022-10-29T13:34:57.788Z,23.80
2022-10-29T13:40:34.066Z,23.70
2022-10-29T13:45:40.622Z,23.59
2022-10-29T13:50:44.207Z,23.48
2022-10-29T13:55:47.866Z,23.44
2022-10-29T14:00:52.640Z,23.41
2022-10-29T14:06:01.636Z,23.35
2022-10-29T14:11:15.018Z,23.35
2022-10-29T14:16:20.681Z,23.30
2022-10-29T14:21:25.787Z,23.25
2022-10-29T14:26:30.664Z,23.12
2022-10-29T14:31:35.209Z,23.09
2022-10-29T14:36:43.326Z,23.04
2022-10-29T14:41:50.053Z,23.01
2022-10-29T14:47:02.160Z,22.92
2022-10-29T14:52:12.856Z,22.86
2022-10-29T14:57:19.425Z,22.80
2022-10-29T15:02:37.524Z,22.66
2022-10-29T15:07:41.940Z,22.57
2022-10-29T15:12:46.293Z,22.44
2022-10-29T15:17:54.297Z,22.28
2022-10-29T15:22:59.663Z,22.21
2022-10-29T15:28:03.398Z,22.06
2022-10-29T15:33:16.703Z,21.92
2022-10-29T15:39:04.106Z,21.81
2022-10-29T15:44:29.045Z,21.65
2022-10-29T15:49:33.680Z,21.57
2022-10-29T15:54:36.747Z,21.48
2022-10-29T15:59:41.152Z,21.35
2022-10-29T16:04:45.738Z,21.21
2022-10-29T16:09:51.577Z,21.07
2022-10-29T16:14:54.773Z,20.97
2022-10-29T16:19:59.244Z,20.90
2022-10-29T16:25:02.245Z,20.74
2022-10-29T16:30:06.071Z,20.70
2022-10-29T16:35:15.559Z,20.58
2022-10-29T16:40:19.205Z,20.47
2022-10-29T16:45:24.414Z,20.40
2022-10-29T16:50:34.264Z,20.37
2022-10-29T16:55:39.296Z,20.30
2022-10-29T17:00:42.761Z,20.19
2022-10-29T17:05:47.995Z,20.15
2022-10-29T17:10:51.342Z,20.14
2022-10-29T17:15:54.499Z,20.07
2022-10-29T17:21:01.324Z,19.91
2022-10-29T17:26:04.599Z,19.94
2022-10-29T17:31:08.534Z,19.85
2022-10-29T17:36:15.274Z,19.76
2022-10-29T17:41:18.550Z,19.67
2022-10-29T17:46:21.760Z,19.57
2022-10-29T17:51:26.439Z,19.49
2022-10-29T17:56:29.486Z,19.43
2022-10-29T18:01:32.675Z,19.31
2022-10-29T18:06:37.460Z,19.25
2022-10-29T18:11:40.459Z,19.19
2022-10-29T18:16:43.670Z,19.19
2022-10-29T18:21:48.157Z,19.13
2022-10-29T18:26:51.439Z,19.08
2022-10-29T18:31:54.431Z,19.03
2022-10-29T18:37:00.333Z,18.98
2022-10-29T18:42:09.559Z,18.95
2022-10-29T18:47:12.881Z,18.95
2022-10-29T18:52:17.668Z,18.86
2022-10-29T18:57:21.112Z,18.87
2022-10-29T19:02:24.604Z,18.80
2022-10-29T19:07:29.410Z,18.70
2022-10-29T19:12:33.152Z,18.65
2022-10-29T19:17:36.414Z,18.64
2022-10-29T19:22:40.963Z,18.63
2022-10-29T19:27:44.300Z,18.59
2022-10-29T19:32:48.108Z,18.56
2022-10-29T19:37:52.728Z,18.53
2022-10-29T19:42:56.993Z,18.48
2022-10-29T19:48:00.206Z,18.41
2022-10-29T19:53:05.576Z,18.35
2022-10-29T19:58:08.895Z,18.30
2022-10-29T20:03:13.111Z,18.26
2022-10-29T20:08:21.965Z,18.18
2022-10-29T20:13:25.830Z,18.16
2022-10-29T20:18:28.821Z,18.12
2022-10-29T20:23:33.446Z,18.10
2022-10-29T20:28:36.963Z,18.00
2022-10-29T20:33:40.273Z,18.01
2022-10-29T20:38:44.900Z,17.97
2022-10-29T20:43:53.056Z,17.90
2022-10-29T20:48:56.446Z,17.82
2022-10-29T20:54:01.050Z,17.72
2022-10-29T20:59:05.512Z,17.63
2022-10-29T21:04:08.733Z,17.48
2022-10-29T21:09:13.159Z,17.44
2022-10-29T21:14:16.139Z,17.36
2022-10-29T21:19:19.483Z,17.24
2022-10-29T21:24:24.025Z,17.21
2022-10-29T21:29:27.150Z,17.15
2022-10-29T21:34:30.197Z,17.09
2022-10-29T21:39:34.938Z,17.01
2022-10-29T21:44:38.174Z,17.01
2022-10-29T21:49:41.246Z,16.93
2022-10-29T21:54:45.738Z,16.85
2022-10-29T21:59:48.831Z,16.74
2022-10-29T22:04:51.778Z,16.67
2022-10-29T22:09:56.355Z,16.59
2022-10-29T22:15:04.140Z,16.47
2022-10-29T22:20:08.137Z,16.42
2022-10-29T22:25:12.476Z,16.37
2022-10-29T22:30:15.584Z,16.29
2022-10-29T22:35:18.824Z,16.23
2022-10-29T22:40:23.269Z,16.17
2022-10-29T22:45:26.262Z,16.09
2022-10-29T22:50:29.374Z,15.97
2022-10-29T22:55:33.908Z,15.77
2022-10-29T23:00:36.944Z,15.78
2022-10-29T23:05:39.930Z,15.68
2022-10-29T23:10:44.390Z,15.59
2022-10-29T23:15:48.097Z,15.54
2022-10-29T23:20:59.050Z,15.45
2022-10-29T23:26:04.206Z,15.37
2022-10-29T23:31:11.542Z,15.28
2022-10-29T23:36:15.832Z,15.20
2022-10-29T23:41:20.175Z,15.11
2022-10-29T23:46:23.330Z,15.08
2022-10-29T23:51:26.334Z,15.02
2022-10-29T23:56:30.640Z,14.98
